NKS1549 KLAX-KLAS
Flight info
| Callsign | NKS1549 |
|---|---|
| Flight time | N/A |
| Altitude | 29000 |
| Route | ORCKA5 MISEN RNDRZ4 |
| Aircraft | A320/M-SDE3FGHIRWY/LB1 |
Departure
| Time | 2026-05-01 15:19 |
|---|---|
| Airport | Los Angeles International Airport (KLAX) |
Arrival
| Time | N/A |
|---|---|
| Airport | Harry Reid International Airport (KLAS) |
| Time | Latitude | Longitude | Altitude | Speed | Heading |
|---|---|---|---|---|---|
| 2026-05-01 14:43 | 33.94111 | -118.40379 | 126 ft | 0 kts | 263° |
| 2026-05-01 15:08 | 33.94112 | -118.40372 | 126 ft | 4 kts | 261° |
| 2026-05-01 15:08 | 33.94119 | -118.40342 | 123 ft | 4 kts | 232° |
| 2026-05-01 15:08 | 33.94138 | -118.40327 | 122 ft | 3 kts | 177° |
| 2026-05-01 15:09 | 33.94142 | -118.40327 | 120 ft | 0 kts | 172° |
| 2026-05-01 15:12 | 33.94134 | -118.40326 | 121 ft | 2 kts | 172° |
| 2026-05-01 15:13 | 33.94026 | -118.40309 | 124 ft | 8 kts | 172° |
| 2026-05-01 15:14 | 33.93885 | -118.40288 | 124 ft | 10 kts | 173° |
| 2026-05-01 15:14 | 33.93854 | -118.40221 | 126 ft | 11 kts | 85° |
| 2026-05-01 15:14 | 33.93880 | -118.39997 | 126 ft | 16 kts | 84° |
| 2026-05-01 15:15 | 33.93909 | -118.39700 | 126 ft | 20 kts | 83° |
| 2026-05-01 15:15 | 33.93946 | -118.39336 | 126 ft | 24 kts | 83° |
| 2026-05-01 15:16 | 33.93989 | -118.38916 | 126 ft | 27 kts | 83° |
| 2026-05-01 15:16 | 33.94037 | -118.38449 | 123 ft | 29 kts | 83° |
| 2026-05-01 15:17 | 33.94066 | -118.38167 | 125 ft | 21 kts | 82° |
| 2026-05-01 15:18 | 33.93979 | -118.38081 | 126 ft | 14 kts | 264° |
| 2026-05-01 15:18 | 33.93941 | -118.38449 | 123 ft | 80 kts | 263° |
| 2026-05-01 15:19 | 33.93569 | -118.42127 | 737 ft | 177 kts | 262° |
| 2026-05-01 15:19 | 33.93383 | -118.45079 | 2077 ft | 181 kts | 264° |
| 2026-05-01 15:19 | 33.93046 | -118.46596 | 2339 ft | 202 kts | 247° |
| 2026-05-01 15:20 | 33.91888 | -118.50073 | 2916 ft | 247 kts | 248° |
| 2026-05-01 15:20 | 33.91183 | -118.52079 | 3467 ft | 264 kts | 248° |
| 2026-05-01 15:20 | 33.90451 | -118.54095 | 4297 ft | 269 kts | 247° |
| 2026-05-01 15:21 | 33.89689 | -118.56158 | 5204 ft | 271 kts | 247° |
| 2026-05-01 15:21 | 33.88898 | -118.58232 | 6085 ft | 274 kts | 242° |
| 2026-05-01 15:21 | 33.87668 | -118.59988 | 6897 ft | 280 kts | 217° |
| 2026-05-01 15:21 | 33.86517 | -118.60762 | 7439 ft | 283 kts | 200° |
| 2026-05-01 15:22 | 33.82152 | -118.59882 | 9365 ft | 289 kts | 139° |
| 2026-05-01 15:22 | 33.81247 | -118.58662 | 9929 ft | 291 kts | 122° |
| 2026-05-01 15:22 | 33.80556 | -118.56386 | 10653 ft | 294 kts | 96° |
| 2026-05-01 15:23 | 33.80767 | -118.53978 | 11321 ft | 298 kts | 69° |
| 2026-05-01 15:23 | 33.81867 | -118.51891 | 11993 ft | 299 kts | 42° |
| 2026-05-01 15:23 | 33.83596 | -118.50429 | 12396 ft | 314 kts | 30° |
| 2026-05-01 15:23 | 33.85537 | -118.49039 | 12536 ft | 336 kts | 29° |
| 2026-05-01 15:24 | 33.87613 | -118.47594 | 12840 ft | 351 kts | 28° |
| 2026-05-01 15:24 | 33.89744 | -118.46118 | 13458 ft | 355 kts | 28° |
| 2026-05-01 15:24 | 33.91841 | -118.44518 | 14113 ft | 360 kts | 35° |
| 2026-05-01 15:24 | 33.93680 | -118.42452 | 14687 ft | 365 kts | 47° |
| 2026-05-01 15:25 | 33.95192 | -118.39971 | 15254 ft | 370 kts | 53° |
| 2026-05-01 15:25 | 33.96643 | -118.37395 | 15812 ft | 373 kts | 53° |
| 2026-05-01 15:25 | 33.98107 | -118.34801 | 16372 ft | 376 kts | 53° |
| 2026-05-01 15:25 | 33.99589 | -118.32180 | 16926 ft | 379 kts | 52° |
| 2026-05-01 15:26 | 34.01083 | -118.29544 | 17477 ft | 383 kts | 52° |
| 2026-05-01 15:26 | 34.02593 | -118.26882 | 18035 ft | 386 kts | 52° |
| 2026-05-01 15:26 | 34.04116 | -118.24201 | 18565 ft | 389 kts | 52° |
| 2026-05-01 15:26 | 34.05654 | -118.21496 | 19047 ft | 393 kts | 52° |
| 2026-05-01 15:27 | 34.07204 | -118.18760 | 19524 ft | 397 kts | 52° |
| 2026-05-01 15:27 | 34.08768 | -118.15994 | 19992 ft | 401 kts | 52° |
| 2026-05-01 15:27 | 34.10346 | -118.13202 | 20455 ft | 405 kts | 52° |
| 2026-05-01 15:28 | 34.13546 | -118.07533 | 21372 ft | 412 kts | 52° |
| 2026-05-01 15:28 | 34.15166 | -118.04660 | 21818 ft | 416 kts | 51° |
| 2026-05-01 15:28 | 34.16799 | -118.01763 | 22228 ft | 419 kts | 51° |
| 2026-05-01 15:29 | 34.20104 | -117.95894 | 23050 ft | 426 kts | 51° |
| 2026-05-01 15:29 | 34.21774 | -117.92922 | 23470 ft | 428 kts | 51° |
| 2026-05-01 15:29 | 34.25148 | -117.86902 | 24097 ft | 436 kts | 51° |
| 2026-05-01 15:30 | 34.28563 | -117.80795 | 24742 ft | 441 kts | 51° |
| 2026-05-01 15:31 | 34.35505 | -117.68367 | 26032 ft | 450 kts | 51° |
| 2026-05-01 15:31 | 34.39155 | -117.62165 | 26698 ft | 454 kts | 49° |
| 2026-05-01 15:32 | 34.42930 | -117.55967 | 27365 ft | 460 kts | 48° |
| 2026-05-01 15:32 | 34.46724 | -117.49674 | 28160 ft | 465 kts | 49° |
| 2026-05-01 15:33 | 34.52398 | -117.40107 | 29084 ft | 468 kts | 48° |
| 2026-05-01 15:34 | 34.58033 | -117.30574 | 29109 ft | 462 kts | 48° |